createdAt,value
2023-05-19T00:02:05.581Z,102114.56
2023-05-19T00:04:33.552Z,102123.34
2023-05-19T00:07:01.277Z,102122.81
2023-05-19T00:09:28.007Z,102122.09
2023-05-19T00:11:54.759Z,102125.06
2023-05-19T00:14:21.431Z,102120.69
2023-05-19T00:16:48.827Z,102115.00
2023-05-19T00:19:17.121Z,102116.59
2023-05-19T00:21:43.828Z,102120.44
2023-05-19T00:24:10.403Z,102124.06
2023-05-19T00:26:37.191Z,102122.28
2023-05-19T00:29:03.703Z,102124.94
2023-05-19T00:31:31.609Z,102120.34
2023-05-19T00:33:58.327Z,102118.31
2023-05-19T00:36:24.872Z,102110.84
2023-05-19T00:38:51.859Z,102119.47
2023-05-19T00:41:18.719Z,102119.47
2023-05-19T00:43:45.382Z,102113.94
2023-05-19T00:46:11.949Z,102120.97
2023-05-19T00:48:38.436Z,102117.34
2023-05-19T00:51:06.514Z,102115.63
2023-05-19T00:53:34.671Z,102112.53
2023-05-19T00:56:03.085Z,102117.13
2023-05-19T00:58:30.749Z,102115.41
2023-05-19T01:01:03.551Z,102111.91
2023-05-19T01:03:32.629Z,102122.59
2023-05-19T01:09:47.292Z,102117.56
2023-05-19T01:12:13.814Z,102113.28
2023-05-19T01:14:40.798Z,102108.16
2023-05-19T01:17:15.160Z,102112.63
2023-05-19T01:19:56.346Z,102106.00
2023-05-19T01:22:56.950Z,102115.19
2023-05-19T01:25:32.559Z,102114.75
2023-05-19T01:28:27.214Z,102113.47
2023-05-19T01:30:56.555Z,102110.69
2023-05-19T01:33:24.682Z,102113.03
2023-05-19T01:35:53.314Z,102119.88
2023-05-19T01:38:20.805Z,102114.00
2023-05-19T01:40:49.512Z,102117.31
2023-05-19T01:43:19.966Z,102113.28
2023-05-19T01:45:47.108Z,102117.03
2023-05-19T01:48:14.848Z,102117.09
2023-05-19T01:50:42.161Z,102118.16
2023-05-19T01:53:08.823Z,102115.09
2023-05-19T01:55:42.172Z,102111.78
2023-05-19T01:58:20.974Z,102115.81
2023-05-19T02:00:56.684Z,102116.38
2023-05-19T02:03:25.952Z,102117.31
2023-05-19T02:06:11.195Z,102112.75
2023-05-19T02:09:01.806Z,102115.47
2023-05-19T02:11:34.129Z,102110.97
2023-05-19T02:14:03.343Z,102126.25
2023-05-19T02:16:30.405Z,102119.47
2023-05-19T02:18:57.337Z,102110.13
2023-05-19T02:21:23.893Z,102117.31
2023-05-19T02:23:50.497Z,102111.22
2023-05-19T02:26:16.950Z,102116.97
2023-05-19T02:28:43.421Z,102117.28
2023-05-19T02:31:10.148Z,102113.34
2023-05-19T02:33:37.489Z,102113.06
2023-05-19T02:36:04.475Z,102114.06
2023-05-19T02:38:31.042Z,102108.19
2023-05-19T02:40:57.480Z,102105.56
2023-05-19T02:43:23.916Z,102102.84
2023-05-19T02:45:50.371Z,102110.78
2023-05-19T02:48:16.885Z,102106.63
2023-05-19T02:50:43.395Z,102106.09
2023-05-19T02:53:09.881Z,102105.88
2023-05-19T02:55:36.552Z,102116.19
2023-05-19T02:58:03.070Z,102108.31
2023-05-19T03:00:29.638Z,102107.63
2023-05-19T03:02:56.233Z,102101.75
2023-05-19T03:05:22.778Z,102099.38
2023-05-19T03:07:49.264Z,102100.72
2023-05-19T03:10:15.937Z,102099.31
2023-05-19T03:12:42.460Z,102102.50
2023-05-19T03:15:09.267Z,102101.78
2023-05-19T03:17:36.482Z,102095.44
2023-05-19T03:20:03.142Z,102102.72
2023-05-19T03:22:29.610Z,102095.88
2023-05-19T03:24:56.123Z,102101.53
2023-05-19T03:27:22.604Z,102096.53
2023-05-19T03:29:49.101Z,102096.25
2023-05-19T03:32:15.900Z,102108.31
2023-05-19T03:34:42.425Z,102095.09
2023-05-19T03:37:10.667Z,102090.09
2023-05-19T03:39:37.174Z,102095.88
2023-05-19T03:42:03.794Z,102093.59
2023-05-19T03:44:30.565Z,102090.59
2023-05-19T03:46:57.032Z,102095.81
2023-05-19T03:49:23.590Z,102091.56
2023-05-19T03:51:50.051Z,102095.16
2023-05-19T03:54:16.925Z,102097.97
2023-05-19T03:56:43.530Z,102100.66
2023-05-19T03:59:12.902Z,102101.38
2023-05-19T04:01:39.443Z,102099.06
2023-05-19T04:04:05.960Z,102098.41
2023-05-19T04:06:33.899Z,102100.69
2023-05-19T04:09:02.619Z,102097.03
2023-05-19T04:11:29.090Z,102098.19
2023-05-19T04:13:55.635Z,102096.28
2023-05-19T04:16:22.349Z,102100.84
2023-05-19T04:18:48.953Z,102098.31
2023-05-19T04:21:15.569Z,102097.56
2023-05-19T04:23:42.091Z,102101.63
2023-05-19T04:26:08.596Z,102095.16
2023-05-19T04:28:38.951Z,102103.44
2023-05-19T04:31:10.573Z,102104.09
2023-05-19T04:33:37.691Z,102111.56
2023-05-19T04:36:08.492Z,102108.25
2023-05-19T04:38:36.773Z,102114.13
2023-05-19T04:41:04.258Z,102104.31
2023-05-19T04:43:31.534Z,102102.81
2023-05-19T04:45:58.290Z,102103.97
2023-05-19T04:48:24.842Z,102110.59
2023-05-19T04:50:52.032Z,102098.97
2023-05-19T04:53:18.664Z,102112.75
2023-05-19T04:55:45.293Z,102114.25
2023-05-19T04:58:12.034Z,102107.75
2023-05-19T05:00:38.520Z,102116.59
2023-05-19T05:03:05.806Z,102115.31
2023-05-19T05:05:32.787Z,102111.03
2023-05-19T05:07:59.538Z,102103.69
2023-05-19T05:10:26.146Z,102110.84
2023-05-19T05:12:52.950Z,102120.88
2023-05-19T05:15:20.085Z,102116.53
2023-05-19T05:17:46.916Z,102120.13
2023-05-19T05:20:14.160Z,102117.56
2023-05-19T05:22:40.973Z,102119.72
2023-05-19T05:25:08.200Z,102113.44
2023-05-19T05:27:34.860Z,102111.38
2023-05-19T05:30:01.323Z,102120.34
2023-05-19T05:32:28.013Z,102117.56
2023-05-19T05:34:54.646Z,102130.16
2023-05-19T05:37:21.150Z,102116.38
2023-05-19T05:39:47.651Z,102110.06
2023-05-19T05:42:14.174Z,102110.06
2023-05-19T05:44:40.778Z,102118.31
2023-05-19T05:47:08.011Z,102112.50
2023-05-19T05:49:38.053Z,102118.38
2023-05-19T05:52:06.595Z,102121.59
2023-05-19T05:54:33.840Z,102117.78
2023-05-19T05:57:00.689Z,102125.69
2023-05-19T05:59:27.529Z,102116.91
2023-05-19T06:01:54.176Z,102119.56
2023-05-19T06:04:21.240Z,102117.44
2023-05-19T06:06:48.034Z,102120.63
2023-05-19T06:09:14.565Z,102112.16
2023-05-19T06:11:41.129Z,102109.50
2023-05-19T06:14:07.648Z,102111.53
2023-05-19T06:16:34.275Z,102116.72
2023-05-19T06:19:00.968Z,102114.97
2023-05-19T06:21:27.458Z,102114.69
2023-05-19T06:23:54.206Z,102122.22
2023-05-19T06:26:20.946Z,102121.47
2023-05-19T06:28:47.479Z,102122.50
2023-05-19T06:31:14.025Z,102120.44
2023-05-19T06:33:40.636Z,102124.09
2023-05-19T06:36:08.533Z,102112.16
2023-05-19T06:38:34.966Z,102119.28
2023-05-19T06:41:01.406Z,102123.06
2023-05-19T06:43:28.731Z,102116.72
2023-05-19T06:45:55.243Z,102109.53
2023-05-19T06:48:21.913Z,102113.19
2023-05-19T06:50:48.392Z,102114.44
2023-05-19T06:53:17.348Z,102109.44
2023-05-19T06:55:57.431Z,102113.97
2023-05-19T06:58:26.669Z,102110.19
2023-05-19T07:00:53.299Z,102114.19
2023-05-19T07:03:19.807Z,102112.91
2023-05-19T07:05:46.606Z,102109.03
2023-05-19T07:08:16.359Z,102111.97
2023-05-19T07:10:42.970Z,102109.00
2023-05-19T07:13:09.457Z,102102.16
2023-05-19T07:15:38.795Z,102110.72
2023-05-19T07:18:05.411Z,102110.53
2023-05-19T07:20:32.138Z,102113.16
2023-05-19T07:23:03.487Z,102102.09
2023-05-19T07:25:30.727Z,102115.47
2023-05-19T07:27:57.350Z,102111.84
2023-05-19T07:30:23.899Z,102115.09
2023-05-19T07:32:50.691Z,102113.38
2023-05-19T07:35:17.252Z,102106.31
2023-05-19T07:37:43.929Z,102109.41
2023-05-19T07:40:10.612Z,102107.59
2023-05-19T07:42:37.117Z,102101.72
2023-05-19T07:45:03.988Z,102097.81
2023-05-19T07:47:31.953Z,102101.03
2023-05-19T07:49:58.612Z,102098.22
2023-05-19T07:52:25.244Z,102096.06
2023-05-19T07:54:51.788Z,102098.38
2023-05-19T07:57:19.004Z,102088.72
2023-05-19T07:59:45.572Z,102092.63
2023-05-19T08:02:12.159Z,102091.47
2023-05-19T08:04:38.853Z,102086.09
2023-05-19T08:07:05.624Z,102088.28
2023-05-19T08:09:32.142Z,102089.03
2023-05-19T08:11:58.667Z,102089.47
2023-05-19T08:14:26.150Z,102085.63
2023-05-19T08:16:52.623Z,102088.22
2023-05-19T08:19:19.845Z,102089.78
2023-05-19T08:21:46.461Z,102087.75
2023-05-19T08:24:12.928Z,102086.53
2023-05-19T08:26:39.495Z,102085.97
2023-05-19T08:29:06.129Z,102091.25
2023-05-19T08:31:32.709Z,102093.81
2023-05-19T08:33:59.335Z,102092.72
2023-05-19T08:36:25.939Z,102096.00
2023-05-19T08:38:52.390Z,102092.22
2023-05-19T08:41:18.959Z,102091.53
2023-05-19T08:43:45.530Z,102098.56
2023-05-19T08:46:14.852Z,102088.97
2023-05-19T08:48:44.298Z,102085.91
2023-05-19T08:51:35.991Z,102084.97
2023-05-19T08:54:14.837Z,102082.34
2023-05-19T08:56:44.404Z,102082.09
2023-05-19T08:59:13.193Z,102082.53
2023-05-19T09:01:42.582Z,102075.41
2023-05-19T09:04:09.788Z,102077.03
2023-05-19T09:06:42.398Z,102059.03
2023-05-19T09:09:09.271Z,102058.22
2023-05-19T09:11:37.560Z,102056.19
2023-05-19T09:14:05.240Z,102032.81
2023-05-19T09:16:34.078Z,102048.75
2023-05-19T09:19:01.736Z,102049.56
2023-05-19T09:21:32.394Z,102041.88
2023-05-19T09:24:04.348Z,102031.72
2023-05-19T09:26:38.323Z,102028.91
2023-05-19T09:29:17.892Z,102028.03
2023-05-19T09:31:54.783Z,102033.63
2023-05-19T09:34:24.666Z,102031.69
2023-05-19T09:36:53.357Z,102029.00
2023-05-19T09:39:21.539Z,102035.16
2023-05-19T09:41:51.784Z,102032.44
2023-05-19T09:44:21.278Z,102022.50
2023-05-19T09:46:54.894Z,102021.94
2023-05-19T09:49:26.034Z,102024.66
2023-05-19T09:52:16.126Z,102023.09
2023-05-19T09:54:43.189Z,102018.72
2023-05-19T09:57:09.745Z,102021.75
2023-05-19T09:59:38.986Z,102024.63
2023-05-19T10:02:06.338Z,102017.72
2023-05-19T10:04:32.818Z,102015.88
2023-05-19T10:07:00.157Z,102011.97
2023-05-19T10:09:28.961Z,102010.41
2023-05-19T10:11:56.814Z,101997.88
2023-05-19T10:14:25.351Z,101998.72
2023-05-19T10:16:53.047Z,102015.88
2023-05-19T10:19:24.687Z,102006.75
2023-05-19T10:21:52.075Z,102005.75
2023-05-19T10:24:19.452Z,102003.00
2023-05-19T10:26:55.129Z,102001.06
2023-05-19T10:29:30.658Z,101997.78
2023-05-19T10:32:05.401Z,102009.41
2023-05-19T10:35:02.816Z,102008.75
2023-05-19T10:37:53.332Z,102010.03
2023-05-19T10:40:33.119Z,102011.22
2023-05-19T10:43:15.418Z,102004.63
2023-05-19T10:45:47.989Z,102006.94
2023-05-19T10:48:16.541Z,102002.78
2023-05-19T10:50:46.931Z,101998.50
2023-05-19T10:53:22.436Z,101992.50
2023-05-19T10:55:56.104Z,101987.63
2023-05-19T10:58:39.528Z,101989.72
2023-05-19T11:01:13.457Z,101993.81
2023-05-19T11:03:54.229Z,101986.44
2023-05-19T11:06:28.330Z,101987.34
2023-05-19T11:08:56.825Z,101990.31
2023-05-19T11:11:23.672Z,101990.53
2023-05-19T11:13:56.744Z,101991.34
2023-05-19T11:16:32.051Z,101986.94
2023-05-19T11:19:01.996Z,101985.03
2023-05-19T11:21:48.253Z,101978.31
2023-05-19T11:24:47.873Z,101972.72
2023-05-19T11:27:33.282Z,101980.19
2023-05-19T11:30:02.228Z,101983.19
2023-05-19T11:32:30.965Z,101962.25
2023-05-19T11:34:58.080Z,101969.66
2023-05-19T11:37:24.861Z,101970.50
2023-05-19T11:39:52.144Z,101962.19
2023-05-19T11:42:19.172Z,101972.47
2023-05-19T11:44:48.932Z,101966.31
2023-05-19T11:47:17.178Z,101958.47
2023-05-19T11:49:56.724Z,101956.97
2023-05-19T11:52:27.496Z,101962.09
2023-05-19T11:54:54.014Z,101953.94
2023-05-19T11:57:21.827Z,101963.84
2023-05-19T11:59:49.748Z,101952.41
2023-05-19T12:02:17.884Z,101966.69
2023-05-19T12:04:44.988Z,101966.25
2023-05-19T12:07:13.447Z,101959.50
2023-05-19T12:09:40.301Z,101966.53
2023-05-19T12:12:07.772Z,101967.47
2023-05-19T12:14:37.364Z,101959.88
2023-05-19T12:17:13.956Z,101961.06
2023-05-19T12:19:42.946Z,101960.09
2023-05-19T12:22:10.389Z,101949.13
2023-05-19T12:24:38.112Z,101953.56
2023-05-19T12:27:07.392Z,101960.41
2023-05-19T12:29:34.512Z,101953.56
2023-05-19T12:32:01.863Z,101956.78
2023-05-19T12:34:28.759Z,101952.09
2023-05-19T12:36:55.282Z,101944.53
2023-05-19T12:39:23.428Z,101938.91
2023-05-19T12:41:50.024Z,101939.13
2023-05-19T12:44:16.934Z,101953.69
2023-05-19T12:46:44.388Z,101943.00
2023-05-19T12:49:11.040Z,101941.06
2023-05-19T12:51:37.542Z,101942.78
2023-05-19T12:54:07.031Z,101937.91
2023-05-19T12:56:33.484Z,101941.16
2023-05-19T12:59:01.601Z,101936.66
2023-05-19T13:01:29.563Z,101934.03
2023-05-19T13:03:56.440Z,101938.97
2023-05-19T13:06:23.226Z,101935.22
2023-05-19T13:08:49.805Z,101936.88
2023-05-19T13:11:16.508Z,101936.75
2023-05-19T13:13:43.114Z,101939.75
2023-05-19T13:16:09.599Z,101937.13
2023-05-19T13:18:37.595Z,101923.69
2023-05-19T13:21:05.730Z,101913.22
2023-05-19T13:23:32.406Z,101927.09
2023-05-19T13:25:59.368Z,101921.78
2023-05-19T13:28:26.315Z,101932.25
2023-05-19T13:30:53.197Z,101921.53
2023-05-19T13:33:19.963Z,101926.84
2023-05-19T13:35:46.488Z,101919.47
2023-05-19T13:38:13.128Z,101916.47
2023-05-19T13:40:40.246Z,101926.53
2023-05-19T13:43:07.843Z,101921.03
2023-05-19T13:45:34.514Z,101916.41
2023-05-19T13:48:01.401Z,101911.03
2023-05-19T13:50:28.036Z,101913.50
2023-05-19T13:52:54.589Z,101914.22
2023-05-19T13:55:21.411Z,101924.63
2023-05-19T13:57:47.981Z,101922.38
2023-05-19T14:00:15.022Z,101919.00
2023-05-19T14:02:42.321Z,101921.03
2023-05-19T14:05:09.201Z,101928.31
2023-05-19T14:07:35.981Z,101920.06
2023-05-19T14:10:05.570Z,101921.81
2023-05-19T14:12:41.625Z,101923.31
2023-05-19T14:15:14.081Z,101918.59
2023-05-19T14:17:40.625Z,101918.81
2023-05-19T14:20:07.840Z,101914.53
2023-05-19T14:22:34.369Z,101919.84
2023-05-19T14:25:01.654Z,101924.63
2023-05-19T14:27:28.135Z,101930.34
2023-05-19T14:29:54.686Z,101931.41
2023-05-19T14:32:21.676Z,101930.56
2023-05-19T14:34:48.247Z,101930.91
2023-05-19T14:37:14.775Z,101937.00
2023-05-19T14:39:41.277Z,101908.69
2023-05-19T14:42:07.824Z,101928.75
2023-05-19T14:44:34.310Z,101927.97
2023-05-19T14:47:02.227Z,101924.72
2023-05-19T14:49:28.856Z,101920.59
2023-05-19T14:51:55.401Z,101927.75
2023-05-19T14:54:22.243Z,101931.63
2023-05-19T14:56:49.044Z,101932.66
2023-05-19T14:59:15.604Z,101929.75
2023-05-19T15:01:42.236Z,101924.22
2023-05-19T15:04:09.053Z,101937.19
2023-05-19T15:06:35.712Z,101930.06
2023-05-19T15:09:02.182Z,101932.16
2023-05-19T15:11:28.714Z,101928.69
2023-05-19T15:13:55.227Z,101935.53
2023-05-19T15:16:21.758Z,101925.00
2023-05-19T15:18:48.391Z,101931.09
2023-05-19T15:21:14.988Z,101923.78
2023-05-19T15:23:41.458Z,101924.75
2023-05-19T15:26:08.152Z,101924.94
2023-05-19T15:28:34.670Z,101921.22
2023-05-19T15:31:01.306Z,101931.53
2023-05-19T15:33:27.895Z,101928.81
2023-05-19T15:35:54.417Z,101925.78
2023-05-19T15:38:21.061Z,101920.06
2023-05-19T15:40:47.628Z,101922.72
2023-05-19T15:43:14.232Z,101916.78
2023-05-19T15:45:40.983Z,101923.28
2023-05-19T15:48:07.931Z,101919.41
2023-05-19T15:50:34.736Z,101918.19
2023-05-19T15:53:01.890Z,101914.06
2023-05-19T15:55:28.421Z,101913.69
2023-05-19T15:57:54.877Z,101922.16
2023-05-19T16:00:21.544Z,101910.94
2023-05-19T16:02:48.189Z,101916.91
2023-05-19T16:05:14.871Z,101916.97
2023-05-19T16:07:42.256Z,101918.66
2023-05-19T16:10:09.341Z,101920.09
2023-05-19T16:12:36.717Z,101913.22
2023-05-19T16:15:03.543Z,101908.22
2023-05-19T16:17:30.226Z,101904.84
2023-05-19T16:19:56.814Z,101904.09
2023-05-19T16:22:24.804Z,101911.59
2023-05-19T16:24:52.288Z,101907.09
2023-05-19T16:27:19.141Z,101903.13
2023-05-19T16:29:45.841Z,101904.44
2023-05-19T16:32:12.799Z,101906.63
2023-05-19T16:34:40.203Z,101909.31
2023-05-19T16:37:06.945Z,101900.28
2023-05-19T16:39:36.834Z,101904.53
2023-05-19T16:42:04.528Z,101908.84
2023-05-19T16:44:31.200Z,101904.38
2023-05-19T16:46:57.827Z,101914.72
2023-05-19T16:49:24.363Z,101908.72
2023-05-19T16:51:52.856Z,101909.94
2023-05-19T16:54:19.563Z,101898.16
2023-05-19T16:56:46.219Z,101902.91
2023-05-19T16:59:12.797Z,101902.53
2023-05-19T17:01:39.356Z,101907.47
2023-05-19T17:04:05.902Z,101911.16
2023-05-19T17:06:32.427Z,101905.47
2023-05-19T17:08:59.064Z,101915.72
2023-05-19T17:11:27.147Z,101914.34
2023-05-19T17:13:53.781Z,101913.34
2023-05-19T17:16:20.322Z,101914.84
2023-05-19T17:21:34.560Z,101923.91
2023-05-19T17:24:01.077Z,101913.69
2023-05-19T17:26:27.699Z,101916.25
2023-05-19T17:28:54.326Z,101916.13
2023-05-19T17:31:20.983Z,101920.63
2023-05-19T17:33:47.487Z,101916.56
2023-05-19T17:36:14.086Z,101915.53
2023-05-19T17:38:42.006Z,101912.75
2023-05-19T17:41:13.865Z,101919.66
2023-05-19T17:43:41.666Z,101910.19
2023-05-19T17:46:08.630Z,101920.63
2023-05-19T17:48:36.321Z,101918.78
2023-05-19T17:51:07.425Z,101925.03
2023-05-19T17:53:34.480Z,101918.56
2023-05-19T17:56:03.584Z,101922.41
2023-05-19T17:58:30.541Z,101921.66
2023-05-19T18:00:57.277Z,101925.72
2023-05-19T18:03:24.500Z,101927.50
2023-05-19T18:05:51.451Z,101921.47
2023-05-19T18:08:18.669Z,101926.88
2023-05-19T18:10:46.128Z,101926.63
2023-05-19T18:13:15.723Z,101917.84
2023-05-19T18:15:42.950Z,101913.00
2023-05-19T18:18:10.846Z,101923.41
2023-05-19T18:20:44.196Z,101922.44
2023-05-19T18:23:11.308Z,101924.69
2023-05-19T18:25:38.141Z,101927.97
2023-05-19T18:28:04.863Z,101922.78
2023-05-19T18:30:31.629Z,101937.81
2023-05-19T18:33:01.914Z,101930.66
2023-05-19T18:35:28.550Z,101934.56
2023-05-19T18:37:56.554Z,101938.69
2023-05-19T18:40:23.035Z,101947.41
2023-05-19T18:42:50.168Z,101933.28
2023-05-19T18:45:16.762Z,101928.78
2023-05-19T18:47:43.275Z,101938.88
2023-05-19T18:50:10.148Z,101942.44
2023-05-19T18:52:36.651Z,101934.81
2023-05-19T18:55:03.704Z,101943.28
2023-05-19T18:57:30.177Z,101950.53
2023-05-19T18:59:57.099Z,101950.97
2023-05-19T19:02:23.734Z,101945.44
2023-05-19T19:04:50.382Z,101944.72
2023-05-19T19:07:16.932Z,101955.50
2023-05-19T19:09:43.874Z,101944.59
2023-05-19T19:12:10.812Z,101954.50
2023-05-19T19:14:37.363Z,101954.25
2023-05-19T19:17:04.141Z,101954.38
2023-05-19T19:19:30.892Z,101951.28
2023-05-19T19:21:57.652Z,101955.94
2023-05-19T19:24:26.339Z,101956.22
2023-05-19T19:26:52.834Z,101961.75
2023-05-19T19:29:21.800Z,101954.69
2023-05-19T19:31:48.579Z,101966.16
2023-05-19T19:34:15.150Z,101965.16
2023-05-19T19:36:41.675Z,101966.56
2023-05-19T19:39:08.166Z,101970.28
2023-05-19T19:41:34.739Z,101968.53
2023-05-19T19:44:01.192Z,101967.69
2023-05-19T19:46:27.775Z,101961.47
2023-05-19T19:48:57.267Z,101964.72
2023-05-19T19:51:23.796Z,101956.06
2023-05-19T19:53:50.251Z,101960.19
2023-05-19T19:56:16.999Z,101965.00
2023-05-19T19:58:43.491Z,101969.38
2023-05-19T20:01:10.923Z,101964.13
2023-05-19T20:03:37.548Z,101971.50
2023-05-19T20:06:04.060Z,101963.75
2023-05-19T20:08:30.657Z,101968.41
2023-05-19T20:10:57.170Z,101963.44
2023-05-19T20:13:23.662Z,101962.16
2023-05-19T20:15:50.492Z,101973.75
2023-05-19T20:18:17.021Z,101975.88
2023-05-19T20:20:43.632Z,101981.28
2023-05-19T20:23:10.349Z,101972.00
2023-05-19T20:25:57.916Z,101981.41
2023-05-19T20:28:29.538Z,101979.84
2023-05-19T20:30:56.134Z,101987.78
2023-05-19T20:33:22.602Z,101987.47
2023-05-19T20:35:49.092Z,101986.31
2023-05-19T20:38:15.578Z,101989.88
2023-05-19T20:40:42.098Z,101984.34
2023-05-19T20:43:08.660Z,101990.97
2023-05-19T20:45:35.535Z,101997.47
2023-05-19T20:48:03.691Z,101997.41
2023-05-19T20:50:30.734Z,102000.44
2023-05-19T20:52:57.355Z,101999.34
2023-05-19T20:55:23.846Z,102002.88
2023-05-19T20:57:50.346Z,101999.09
2023-05-19T21:00:17.172Z,101997.34
2023-05-19T21:02:44.226Z,101989.59
2023-05-19T21:05:11.095Z,101984.25
2023-05-19T21:07:37.618Z,101996.34
2023-05-19T21:10:04.395Z,101990.13
2023-05-19T21:12:34.157Z,101996.75
2023-05-19T21:15:02.059Z,101994.56
2023-05-19T21:17:28.678Z,101999.81
2023-05-19T21:19:58.012Z,102000.19
2023-05-19T21:22:25.431Z,101996.28
2023-05-19T21:24:52.298Z,102005.56
2023-05-19T21:27:18.899Z,102002.75
2023-05-19T21:29:45.435Z,102002.50
2023-05-19T21:32:11.950Z,102004.06
2023-05-19T21:34:38.977Z,102004.94
2023-05-19T21:37:05.609Z,102008.59
2023-05-19T21:39:32.073Z,102015.09
2023-05-19T21:41:58.696Z,102021.31
2023-05-19T21:44:25.366Z,102016.53
2023-05-19T21:46:52.006Z,102006.72
2023-05-19T21:49:18.699Z,102013.72
2023-05-19T21:51:45.288Z,102017.19
2023-05-19T21:54:12.065Z,102017.66
2023-05-19T21:56:38.576Z,102020.75
2023-05-19T21:59:05.153Z,102018.16
2023-05-19T22:01:32.177Z,102017.00
2023-05-19T22:03:58.689Z,102023.13
2023-05-19T22:06:25.294Z,102017.63
2023-05-19T22:08:51.740Z,102021.09
2023-05-19T22:11:18.246Z,102016.97
2023-05-19T22:13:44.937Z,102019.81
2023-05-19T22:16:11.513Z,102022.19
2023-05-19T22:18:38.183Z,102024.34
2023-05-19T22:21:04.817Z,102025.03
2023-05-19T22:23:31.379Z,102028.47
2023-05-19T22:25:57.904Z,102033.81
2023-05-19T22:28:24.355Z,102028.97
2023-05-19T22:30:50.937Z,102023.06
2023-05-19T22:33:17.527Z,102027.28
2023-05-19T22:35:44.234Z,102023.16
2023-05-19T22:38:11.745Z,102030.22
2023-05-19T22:40:38.833Z,102035.00
2023-05-19T22:43:05.517Z,102032.69
2023-05-19T22:45:32.308Z,102030.25
2023-05-19T22:47:58.881Z,102031.50
2023-05-19T22:50:25.728Z,102030.53
2023-05-19T22:52:52.192Z,102031.28
2023-05-19T22:55:18.979Z,102029.06
2023-05-19T22:57:45.492Z,102033.97
2023-05-19T23:00:14.265Z,102038.88
2023-05-19T23:02:44.196Z,102041.53
2023-05-19T23:05:10.752Z,102041.16
2023-05-19T23:07:37.245Z,102039.63
2023-05-19T23:10:05.959Z,102028.28
2023-05-19T23:12:32.454Z,102035.84
2023-05-19T23:14:58.941Z,102028.19
2023-05-19T23:17:25.566Z,102022.69
2023-05-19T23:19:52.049Z,102023.69
2023-05-19T23:22:18.801Z,102025.88
2023-05-19T23:24:45.419Z,102027.09
2023-05-19T23:27:11.949Z,102028.41
2023-05-19T23:29:38.409Z,102026.44
2023-05-19T23:32:05.349Z,102022.56
2023-05-19T23:34:31.855Z,102026.25
2023-05-19T23:36:58.382Z,102022.97
2023-05-19T23:39:25.455Z,102019.69
2023-05-19T23:41:52.048Z,102021.88
2023-05-19T23:44:18.598Z,102023.56
2023-05-19T23:46:45.234Z,102010.44
2023-05-19T23:49:11.816Z,102018.47
2023-05-19T23:51:38.287Z,102013.81
2023-05-19T23:54:04.798Z,102017.22
2023-05-19T23:56:31.299Z,102021.97
2023-05-19T23:58:57.804Z,102021.88
